QLK1533 YCFS-YSSY
Flight info
| Callsign | QLK1533 |
|---|---|
| Flight time | 0h 37m |
| Altitude | 30000 |
| Route | BANDA J70 IGDAM/N0476F290 H652 BOREE |
| Aircraft | B738/M-SDE2E3FGHIRWXY/LB1 |
Departure
| Time | 2026-04-30 19:23 |
|---|---|
| Airport | Coffs Harbour Airport (YCFS) |
Arrival
| Time | 2026-04-30 20:01 |
|---|---|
| Airport | Sydney Kingsford Smith International Airport (YSSY) |
| Time | Latitude | Longitude | Altitude | Speed | Heading |
|---|---|---|---|---|---|
| 2026-04-30 19:13 | -30.32355 | 153.11593 | 29 ft | 0 kts | 340° |
| 2026-04-30 19:21 | -30.32348 | 153.11603 | 27 ft | 2 kts | 85° |
| 2026-04-30 19:21 | -30.32429 | 153.11773 | 28 ft | 17 kts | 130° |
| 2026-04-30 19:22 | -30.32547 | 153.11927 | 30 ft | 3 kts | 167° |
| 2026-04-30 19:22 | -30.33618 | 153.10867 | 165 ft | 159 kts | 221° |
| 2026-04-30 19:23 | -30.36213 | 153.07937 | 2104 ft | 208 kts | 224° |
| 2026-04-30 19:24 | -30.38449 | 153.05337 | 2853 ft | 248 kts | 222° |
| 2026-04-30 19:24 | -30.39717 | 153.03894 | 3484 ft | 262 kts | 221° |
| 2026-04-30 19:24 | -30.42360 | 153.00849 | 5315 ft | 271 kts | 221° |
| 2026-04-30 19:25 | -30.46777 | 152.96832 | 7815 ft | 279 kts | 198° |
| 2026-04-30 19:26 | -30.50480 | 152.95251 | 9387 ft | 289 kts | 197° |
| 2026-04-30 19:26 | -30.54323 | 152.93626 | 10870 ft | 303 kts | 198° |
| 2026-04-30 19:26 | -30.56381 | 152.92736 | 11084 ft | 329 kts | 199° |
| 2026-04-30 19:27 | -30.60959 | 152.90719 | 11468 ft | 377 kts | 199° |
| 2026-04-30 19:27 | -30.66055 | 152.88451 | 12236 ft | 401 kts | 199° |
| 2026-04-30 19:28 | -30.68664 | 152.87285 | 12868 ft | 403 kts | 200° |
| 2026-04-30 19:28 | -30.73928 | 152.84922 | 14117 ft | 408 kts | 200° |
| 2026-04-30 19:29 | -30.79259 | 152.82526 | 15323 ft | 414 kts | 200° |
| 2026-04-30 19:29 | -30.81948 | 152.81309 | 15870 ft | 417 kts | 200° |
| 2026-04-30 19:30 | -30.90128 | 152.77620 | 17540 ft | 424 kts | 200° |
| 2026-04-30 19:30 | -30.95663 | 152.75127 | 18495 ft | 429 kts | 200° |
| 2026-04-30 19:31 | -31.01266 | 152.72599 | 19364 ft | 435 kts | 200° |
| 2026-04-30 19:31 | -31.04096 | 152.71317 | 19801 ft | 438 kts | 200° |
| 2026-04-30 19:31 | -31.09795 | 152.68741 | 20721 ft | 442 kts | 200° |
| 2026-04-30 19:32 | -31.12665 | 152.67440 | 21127 ft | 444 kts | 200° |
| 2026-04-30 19:32 | -31.15559 | 152.66130 | 21526 ft | 447 kts | 200° |
| 2026-04-30 19:32 | -31.18463 | 152.64812 | 21905 ft | 451 kts | 200° |
| 2026-04-30 19:32 | -31.21383 | 152.63487 | 22288 ft | 452 kts | 200° |
| 2026-04-30 19:33 | -31.24323 | 152.62153 | 22693 ft | 454 kts | 200° |
| 2026-04-30 19:33 | -31.27229 | 152.60833 | 23059 ft | 456 kts | 200° |
| 2026-04-30 19:33 | -31.30194 | 152.59485 | 23381 ft | 458 kts | 200° |
| 2026-04-30 19:33 | -31.33170 | 152.58129 | 23714 ft | 460 kts | 200° |
| 2026-04-30 19:34 | -31.36165 | 152.56763 | 24014 ft | 462 kts | 200° |
| 2026-04-30 19:34 | -31.39167 | 152.55394 | 24302 ft | 464 kts | 200° |
| 2026-04-30 19:34 | -31.45213 | 152.52632 | 24862 ft | 468 kts | 200° |
| 2026-04-30 19:35 | -31.48243 | 152.51249 | 25140 ft | 470 kts | 200° |
| 2026-04-30 19:35 | -31.51295 | 152.49854 | 25410 ft | 472 kts | 200° |
| 2026-04-30 19:35 | -31.54365 | 152.48450 | 25699 ft | 474 kts | 200° |
| 2026-04-30 19:35 | -31.57443 | 152.47041 | 25987 ft | 475 kts | 200° |
| 2026-04-30 19:36 | -31.60532 | 152.45627 | 26237 ft | 477 kts | 200° |
| 2026-04-30 19:36 | -31.63634 | 152.44208 | 26523 ft | 479 kts | 200° |
| 2026-04-30 19:36 | -31.69811 | 152.41370 | 27350 ft | 474 kts | 200° |
| 2026-04-30 19:37 | -31.72879 | 152.39956 | 27720 ft | 474 kts | 200° |
| 2026-04-30 19:37 | -31.75946 | 152.38545 | 28067 ft | 473 kts | 200° |
| 2026-04-30 19:37 | -31.79012 | 152.37136 | 28423 ft | 473 kts | 200° |
| 2026-04-30 19:37 | -31.82075 | 152.35731 | 28818 ft | 472 kts | 200° |
| 2026-04-30 19:38 | -31.85124 | 152.34328 | 29215 ft | 470 kts | 200° |
| 2026-04-30 19:38 | -31.88166 | 152.32927 | 29566 ft | 470 kts | 200° |
| 2026-04-30 19:38 | -31.91206 | 152.31526 | 29929 ft | 469 kts | 199° |
| 2026-04-30 19:38 | -31.94247 | 152.30129 | 30302 ft | 469 kts | 200° |
| 2026-04-30 19:39 | -32.00318 | 152.27316 | 30395 ft | 468 kts | 200° |
| 2026-04-30 19:39 | -32.06365 | 152.24513 | 30401 ft | 466 kts | 200° |
| 2026-04-30 19:40 | -32.12403 | 152.21714 | 30394 ft | 467 kts | 200° |
| 2026-04-30 19:40 | -32.18454 | 152.18904 | 30396 ft | 467 kts | 200° |
| 2026-04-30 19:41 | -32.24494 | 152.16099 | 30397 ft | 467 kts | 200° |
| 2026-04-30 19:41 | -32.30551 | 152.13282 | 30401 ft | 468 kts | 200° |
| 2026-04-30 19:42 | -32.36608 | 152.10464 | 30399 ft | 468 kts | 200° |
| 2026-04-30 19:42 | -32.42614 | 152.07662 | 30403 ft | 467 kts | 200° |
| 2026-04-30 19:43 | -32.48655 | 152.04834 | 30050 ft | 471 kts | 200° |
| 2026-04-30 19:43 | -32.51712 | 152.03404 | 29292 ft | 471 kts | 200° |
| 2026-04-30 19:44 | -32.57807 | 152.00550 | 27504 ft | 471 kts | 200° |
| 2026-04-30 19:44 | -32.60776 | 151.99159 | 26566 ft | 471 kts | 200° |
| 2026-04-30 19:44 | -32.63828 | 151.97726 | 25641 ft | 471 kts | 200° |
| 2026-04-30 19:44 | -32.66854 | 151.96303 | 24982 ft | 465 kts | 200° |
| 2026-04-30 19:45 | -32.69844 | 151.94895 | 24287 ft | 460 kts | 200° |
| 2026-04-30 19:45 | -32.72800 | 151.93503 | 23602 ft | 454 kts | 200° |
| 2026-04-30 19:45 | -32.75718 | 151.92129 | 22924 ft | 449 kts | 200° |
| 2026-04-30 19:45 | -32.78599 | 151.90768 | 22246 ft | 443 kts | 200° |
| 2026-04-30 19:46 | -32.81448 | 151.89424 | 21582 ft | 438 kts | 200° |
| 2026-04-30 19:46 | -32.84265 | 151.88098 | 20922 ft | 434 kts | 201° |
| 2026-04-30 19:46 | -32.86120 | 151.87222 | 20478 ft | 431 kts | 201° |
| 2026-04-30 19:46 | -32.88898 | 151.85912 | 19818 ft | 427 kts | 201° |
| 2026-04-30 19:47 | -32.91645 | 151.84616 | 19162 ft | 423 kts | 201° |
| 2026-04-30 19:47 | -32.94367 | 151.83334 | 18506 ft | 419 kts | 201° |
| 2026-04-30 19:47 | -32.97059 | 151.82059 | 17859 ft | 414 kts | 201° |
| 2026-04-30 19:47 | -32.99725 | 151.80795 | 17212 ft | 410 kts | 201° |
| 2026-04-30 19:48 | -33.02364 | 151.79544 | 16568 ft | 407 kts | 201° |
| 2026-04-30 19:48 | -33.04983 | 151.78308 | 15929 ft | 403 kts | 201° |
| 2026-04-30 19:48 | -33.07582 | 151.77073 | 15291 ft | 400 kts | 201° |
| 2026-04-30 19:48 | -33.10157 | 151.75850 | 14653 ft | 397 kts | 201° |
| 2026-04-30 19:49 | -33.12713 | 151.74635 | 14024 ft | 394 kts | 201° |
| 2026-04-30 19:49 | -33.17756 | 151.72234 | 12768 ft | 387 kts | 201° |
| 2026-04-30 19:49 | -33.20251 | 151.71045 | 12161 ft | 385 kts | 201° |
| 2026-04-30 19:50 | -33.22735 | 151.69863 | 11617 ft | 384 kts | 201° |
| 2026-04-30 19:50 | -33.25209 | 151.68682 | 11121 ft | 384 kts | 201° |
| 2026-04-30 19:50 | -33.27703 | 151.67494 | 10621 ft | 387 kts | 201° |
| 2026-04-30 19:50 | -33.30204 | 151.66304 | 10128 ft | 387 kts | 201° |
| 2026-04-30 19:51 | -33.32698 | 151.65114 | 9619 ft | 385 kts | 201° |
| 2026-04-30 19:51 | -33.35176 | 151.63930 | 9149 ft | 382 kts | 200° |
| 2026-04-30 19:51 | -33.37632 | 151.62756 | 8701 ft | 379 kts | 200° |
| 2026-04-30 19:51 | -33.40074 | 151.61590 | 8252 ft | 377 kts | 200° |
| 2026-04-30 19:52 | -33.42503 | 151.60428 | 7803 ft | 375 kts | 200° |
| 2026-04-30 19:52 | -33.44920 | 151.59272 | 7356 ft | 373 kts | 200° |
| 2026-04-30 19:52 | -33.47327 | 151.58116 | 6897 ft | 372 kts | 200° |
| 2026-04-30 19:52 | -33.49727 | 151.56968 | 6446 ft | 369 kts | 200° |
| 2026-04-30 19:53 | -33.52110 | 151.55829 | 5998 ft | 369 kts | 200° |
| 2026-04-30 19:53 | -33.54486 | 151.54692 | 5573 ft | 367 kts | 201° |
| 2026-04-30 19:53 | -33.56813 | 151.53573 | 5204 ft | 364 kts | 201° |
| 2026-04-30 19:53 | -33.59115 | 151.52384 | 4846 ft | 350 kts | 206° |
| 2026-04-30 19:54 | -33.61304 | 151.51072 | 4436 ft | 347 kts | 201° |
| 2026-04-30 19:54 | -33.63686 | 151.50134 | 4116 ft | 362 kts | 194° |
| 2026-04-30 19:54 | -33.66077 | 151.49274 | 3835 ft | 357 kts | 198° |
| 2026-04-30 19:54 | -33.68383 | 151.48229 | 3598 ft | 352 kts | 202° |
| 2026-04-30 19:55 | -33.70635 | 151.47075 | 3355 ft | 352 kts | 202° |
| 2026-04-30 19:55 | -33.72889 | 151.45913 | 3106 ft | 354 kts | 202° |
| 2026-04-30 19:55 | -33.75155 | 151.44771 | 3018 ft | 353 kts | 202° |
| 2026-04-30 19:55 | -33.77409 | 151.43659 | 2986 ft | 346 kts | 201° |
| 2026-04-30 19:56 | -33.79585 | 151.42606 | 2976 ft | 327 kts | 201° |
| 2026-04-30 19:56 | -33.81640 | 151.41608 | 2968 ft | 309 kts | 201° |
| 2026-04-30 19:56 | -33.83598 | 151.40649 | 2988 ft | 296 kts | 201° |
| 2026-04-30 19:56 | -33.85453 | 151.39749 | 2981 ft | 280 kts | 201° |
| 2026-04-30 19:57 | -33.87215 | 151.38910 | 2985 ft | 264 kts | 200° |
| 2026-04-30 19:57 | -33.88778 | 151.37877 | 2971 ft | 252 kts | 226° |
| 2026-04-30 19:57 | -33.89640 | 151.36140 | 2910 ft | 238 kts | 250° |
| 2026-04-30 19:57 | -33.90204 | 151.34311 | 2613 ft | 226 kts | 253° |
| 2026-04-30 19:58 | -33.90597 | 151.32532 | 2327 ft | 214 kts | 254° |
| 2026-04-30 19:58 | -33.90982 | 151.30848 | 2050 ft | 203 kts | 252° |
| 2026-04-30 19:58 | -33.91342 | 151.29246 | 1790 ft | 192 kts | 253° |
| 2026-04-30 19:58 | -33.91695 | 151.27738 | 1555 ft | 180 kts | 251° |
| 2026-04-30 19:59 | -33.92028 | 151.26335 | 1320 ft | 169 kts | 253° |
| 2026-04-30 19:59 | -33.92339 | 151.25008 | 1100 ft | 160 kts | 256° |
| 2026-04-30 19:59 | -33.92917 | 151.22549 | 693 ft | 149 kts | 256° |
| 2026-04-30 20:00 | -33.93198 | 151.21353 | 493 ft | 148 kts | 256° |
| 2026-04-30 20:00 | -33.93475 | 151.20166 | 311 ft | 147 kts | 255° |
| 2026-04-30 20:00 | -33.93758 | 151.18969 | 92 ft | 150 kts | 255° |
| 2026-04-30 20:00 | -33.94030 | 151.17829 | 37 ft | 129 kts | 255° |
| 2026-04-30 20:01 | -33.94234 | 151.16956 | 28 ft | 14 kts | 254° |
| 2026-04-30 20:01 | -33.94194 | 151.16859 | 27 ft | 13 kts | 335° |
| 2026-04-30 20:01 | -33.94135 | 151.16912 | 28 ft | 13 kts | 82° |
| 2026-04-30 20:02 | -33.94074 | 151.17175 | 28 ft | 15 kts | 74° |
| 2026-04-30 20:02 | -33.94003 | 151.17232 | 28 ft | 14 kts | 1° |
| 2026-04-30 20:03 | -33.93904 | 151.17506 | 27 ft | 22 kts | 73° |
| 2026-04-30 20:03 | -33.93863 | 151.17678 | 28 ft | 18 kts | 74° |
| 2026-04-30 20:03 | -33.93811 | 151.17761 | 29 ft | 13 kts | 20° |
| 2026-04-30 20:03 | -33.93727 | 151.17788 | 29 ft | 13 kts | 14° |
| 2026-04-30 20:04 | -33.93641 | 151.17813 | 29 ft | 13 kts | 12° |
| 2026-04-30 20:04 | -33.93555 | 151.17831 | 29 ft | 12 kts | 9° |
| 2026-04-30 20:04 | -33.93514 | 151.17860 | 29 ft | 3 kts | 93° |
| 2026-04-30 20:05 | -33.93523 | 151.17916 | 29 ft | 1 kts | 99° |
| 2026-04-30 20:05 | -33.93523 | 151.17920 | 29 ft | 0 kts | 100° |